sensor_id;sensor_type;location;lat;lon;timestamp;temperature;humidity
22416;DHT22;12204;50.600;4.608;2023-09-12T00:02:38;28.60;67.30
22416;DHT22;12204;50.600;4.608;2023-09-12T00:07:41;28.60;67.00
22416;DHT22;12204;50.600;4.608;2023-09-12T00:12:46;28.60;66.70
22416;DHT22;12204;50.600;4.608;2023-09-12T00:17:50;28.60;66.40
22416;DHT22;12204;50.600;4.608;2023-09-12T00:22:53;28.60;66.80
22416;DHT22;12204;50.600;4.608;2023-09-12T00:27:59;28.60;66.70
22416;DHT22;12204;50.600;4.608;2023-09-12T00:33:03;28.60;66.90
22416;DHT22;12204;50.600;4.608;2023-09-12T00:38:08;28.60;67.30
22416;DHT22;12204;50.600;4.608;2023-09-12T00:43:13;28.60;67.30
22416;DHT22;12204;50.600;4.608;2023-09-12T00:48:18;28.60;68.60
22416;DHT22;12204;50.600;4.608;2023-09-12T00:53:26;28.60;68.10
22416;DHT22;12204;50.600;4.608;2023-09-12T00:58:31;28.60;67.70
22416;DHT22;12204;50.600;4.608;2023-09-12T01:03:35;28.60;67.30
22416;DHT22;12204;50.600;4.608;2023-09-12T01:08:38;28.60;67.00
22416;DHT22;12204;50.600;4.608;2023-09-12T01:13:44;28.60;66.60
22416;DHT22;12204;50.600;4.608;2023-09-12T01:18:47;28.60;66.50
22416;DHT22;12204;50.600;4.608;2023-09-12T01:24:04;28.60;66.50
22416;DHT22;12204;50.600;4.608;2023-09-12T01:29:25;28.60;66.70
22416;DHT22;12204;50.600;4.608;2023-09-12T01:34:29;28.50;66.90
22416;DHT22;12204;50.600;4.608;2023-09-12T01:39:33;28.50;67.10
22416;DHT22;12204;50.600;4.608;2023-09-12T01:44:38;28.50;67.40
22416;DHT22;12204;50.600;4.608;2023-09-12T01:49:47;28.50;67.70
22416;DHT22;12204;50.600;4.608;2023-09-12T01:54:53;28.50;68.10
22416;DHT22;12204;50.600;4.608;2023-09-12T01:59:58;28.50;67.70
22416;DHT22;12204;50.600;4.608;2023-09-12T02:05:08;28.50;67.30
22416;DHT22;12204;50.600;4.608;2023-09-12T02:10:16;28.50;67.00
22416;DHT22;12204;50.600;4.608;2023-09-12T02:15:21;28.50;66.60
22416;DHT22;12204;50.600;4.608;2023-09-12T02:20:26;28.50;66.40
22416;DHT22;12204;50.600;4.608;2023-09-12T02:25:30;28.50;66.50
22416;DHT22;12204;50.600;4.608;2023-09-12T02:30:38;28.50;66.80
22416;DHT22;12204;50.600;4.608;2023-09-12T02:35:42;28.50;67.00
22416;DHT22;12204;50.600;4.608;2023-09-12T02:40:46;28.50;67.20
22416;DHT22;12204;50.600;4.608;2023-09-12T02:45:50;28.50;67.40
22416;DHT22;12204;50.600;4.608;2023-09-12T02:50:54;28.50;67.90
22416;DHT22;12204;50.600;4.608;2023-09-12T02:55:57;28.40;67.80
22416;DHT22;12204;50.600;4.608;2023-09-12T03:01:02;28.50;67.40
22416;DHT22;12204;50.600;4.608;2023-09-12T03:06:08;28.40;67.00
22416;DHT22;12204;50.600;4.608;2023-09-12T03:11:11;28.40;66.70
22416;DHT22;12204;50.600;4.608;2023-09-12T03:16:16;28.50;66.50
22416;DHT22;12204;50.600;4.608;2023-09-12T03:21:20;28.50;66.50
22416;DHT22;12204;50.600;4.608;2023-09-12T03:26:23;28.40;66.70
22416;DHT22;12204;50.600;4.608;2023-09-12T03:31:28;28.40;66.90
22416;DHT22;12204;50.600;4.608;2023-09-12T03:36:32;28.40;67.00
22416;DHT22;12204;50.600;4.608;2023-09-12T03:41:36;28.40;67.40
22416;DHT22;12204;50.600;4.608;2023-09-12T03:46:41;28.40;67.90
22416;DHT22;12204;50.600;4.608;2023-09-12T03:51:44;28.40;67.80
22416;DHT22;12204;50.600;4.608;2023-09-12T03:56:48;28.40;67.40
22416;DHT22;12204;50.600;4.608;2023-09-12T04:01:53;28.40;67.00
22416;DHT22;12204;50.600;4.608;2023-09-12T04:06:57;28.40;66.70
22416;DHT22;12204;50.600;4.608;2023-09-12T04:12:01;28.40;66.40
22416;DHT22;12204;50.600;4.608;2023-09-12T04:17:05;28.40;66.60
22416;DHT22;12204;50.600;4.608;2023-09-12T04:22:11;28.40;67.00
22416;DHT22;12204;50.600;4.608;2023-09-12T04:27:14;28.40;67.20
22416;DHT22;12204;50.600;4.608;2023-09-12T04:32:19;28.40;67.70
22416;DHT22;12204;50.600;4.608;2023-09-12T04:37:26;28.40;67.90
22416;DHT22;12204;50.600;4.608;2023-09-12T04:42:30;28.40;67.40
22416;DHT22;12204;50.600;4.608;2023-09-12T04:47:35;28.40;67.10
22416;DHT22;12204;50.600;4.608;2023-09-12T04:52:39;28.40;66.70
22416;DHT22;12204;50.600;4.608;2023-09-12T04:57:43;28.40;66.50
22416;DHT22;12204;50.600;4.608;2023-09-12T05:02:48;28.40;66.60
22416;DHT22;12204;50.600;4.608;2023-09-12T05:07:52;28.40;67.00
22416;DHT22;12204;50.600;4.608;2023-09-12T05:12:55;28.40;67.20
22416;DHT22;12204;50.600;4.608;2023-09-12T05:18:00;28.40;67.50
22416;DHT22;12204;50.600;4.608;2023-09-12T05:23:05;28.40;67.80
22416;DHT22;12204;50.600;4.608;2023-09-12T05:28:08;28.40;67.30
22416;DHT22;12204;50.600;4.608;2023-09-12T05:33:15;28.40;67.00
22416;DHT22;12204;50.600;4.608;2023-09-12T05:38:20;28.30;66.60
22416;DHT22;12204;50.600;4.608;2023-09-12T05:43:24;28.40;66.60
22416;DHT22;12204;50.600;4.608;2023-09-12T05:48:29;28.30;66.80
22416;DHT22;12204;50.600;4.608;2023-09-12T05:53:33;28.30;67.10
22416;DHT22;12204;50.600;4.608;2023-09-12T05:58:37;28.30;67.40
22416;DHT22;12204;50.600;4.608;2023-09-12T06:03:45;28.40;67.90
22416;DHT22;12204;50.600;4.608;2023-09-12T06:08:49;28.30;67.70
22416;DHT22;12204;50.600;4.608;2023-09-12T06:13:54;28.30;67.30
22416;DHT22;12204;50.600;4.608;2023-09-12T06:18:59;28.30;66.90
22416;DHT22;12204;50.600;4.608;2023-09-12T06:24:09;28.30;66.60
22416;DHT22;12204;50.600;4.608;2023-09-12T06:29:14;28.40;66.70
22416;DHT22;12204;50.600;4.608;2023-09-12T06:34:19;28.30;67.00
22416;DHT22;12204;50.600;4.608;2023-09-12T06:39:23;28.40;67.20
22416;DHT22;12204;50.600;4.608;2023-09-12T06:44:28;28.30;67.30
22416;DHT22;12204;50.600;4.608;2023-09-12T06:49:33;28.30;67.30
22416;DHT22;12204;50.600;4.608;2023-09-12T06:54:38;28.30;67.00
22416;DHT22;12204;50.600;4.608;2023-09-12T06:59:41;28.30;66.70
22416;DHT22;12204;50.600;4.608;2023-09-12T07:04:46;28.40;66.60
22416;DHT22;12204;50.600;4.608;2023-09-12T07:09:49;28.40;66.80
22416;DHT22;12204;50.600;4.608;2023-09-12T07:14:53;28.30;67.00
22416;DHT22;12204;50.600;4.608;2023-09-12T07:20:00;28.30;67.20
22416;DHT22;12204;50.600;4.608;2023-09-12T07:25:04;28.30;68.40
22416;DHT22;12204;50.600;4.608;2023-09-12T07:30:10;28.30;68.70
22416;DHT22;12204;50.600;4.608;2023-09-12T07:35:15;28.30;67.60
22416;DHT22;12204;50.600;4.608;2023-09-12T07:40:22;28.30;67.20
22416;DHT22;12204;50.600;4.608;2023-09-12T07:45:26;28.30;67.00
22416;DHT22;12204;50.600;4.608;2023-09-12T07:50:31;28.30;66.70
22416;DHT22;12204;50.600;4.608;2023-09-12T07:55:36;28.30;66.50
22416;DHT22;12204;50.600;4.608;2023-09-12T08:00:47;28.40;66.90
22416;DHT22;12204;50.600;4.608;2023-09-12T08:05:56;28.30;67.10
22416;DHT22;12204;50.600;4.608;2023-09-12T08:11:00;28.30;67.20
22416;DHT22;12204;50.600;4.608;2023-09-12T08:16:03;28.30;67.70
22416;DHT22;12204;50.600;4.608;2023-09-12T08:21:09;28.30;67.90
22416;DHT22;12204;50.600;4.608;2023-09-12T08:26:13;28.40;67.70
22416;DHT22;12204;50.600;4.608;2023-09-12T08:31:17;28.30;67.20
22416;DHT22;12204;50.600;4.608;2023-09-12T08:36:23;28.30;66.80
22416;DHT22;12204;50.600;4.608;2023-09-12T08:41:27;28.30;66.50
22416;DHT22;12204;50.600;4.608;2023-09-12T08:46:30;28.40;66.40
22416;DHT22;12204;50.600;4.608;2023-09-12T08:51:35;28.40;66.60
22416;DHT22;12204;50.600;4.608;2023-09-12T08:56:40;28.30;66.80
22416;DHT22;12204;50.600;4.608;2023-09-12T09:01:46;28.30;67.00
22416;DHT22;12204;50.600;4.608;2023-09-12T09:06:55;28.40;67.30
22416;DHT22;12204;50.600;4.608;2023-09-12T09:12:01;28.40;67.60
22416;DHT22;12204;50.600;4.608;2023-09-12T09:17:05;28.30;67.60
22416;DHT22;12204;50.600;4.608;2023-09-12T09:22:19;28.30;67.20
22416;DHT22;12204;50.600;4.608;2023-09-12T09:27:33;28.30;66.80
22416;DHT22;12204;50.600;4.608;2023-09-12T09:32:37;28.40;66.50
22416;DHT22;12204;50.600;4.608;2023-09-12T09:37:42;28.30;66.30
22416;DHT22;12204;50.600;4.608;2023-09-12T09:42:46;28.40;66.50
22416;DHT22;12204;50.600;4.608;2023-09-12T09:47:52;28.40;66.80
22416;DHT22;12204;50.600;4.608;2023-09-12T09:56:22;28.40;66.30
22416;DHT22;12204;50.600;4.608;2023-09-12T10:01:28;28.40;67.60
22416;DHT22;12204;50.600;4.608;2023-09-12T10:06:36;28.40;67.70
22416;DHT22;12204;50.600;4.608;2023-09-12T10:11:43;28.40;67.30
22416;DHT22;12204;50.600;4.608;2023-09-12T10:16:49;28.40;66.80
22416;DHT22;12204;50.600;4.608;2023-09-12T10:22:00;28.40;66.50
22416;DHT22;12204;50.600;4.608;2023-09-12T10:27:09;28.40;66.20
22416;DHT22;12204;50.600;4.608;2023-09-12T10:32:15;28.40;66.00
22416;DHT22;12204;50.600;4.608;2023-09-12T10:37:22;28.40;66.30
22416;DHT22;12204;50.600;4.608;2023-09-12T10:42:30;28.40;66.50
22416;DHT22;12204;50.600;4.608;2023-09-12T10:47:36;28.40;66.60
22416;DHT22;12204;50.600;4.608;2023-09-12T10:52:41;28.40;66.90
22416;DHT22;12204;50.600;4.608;2023-09-12T10:58:04;28.40;67.20
22416;DHT22;12204;50.600;4.608;2023-09-12T11:03:38;28.40;66.90
22416;DHT22;12204;50.600;4.608;2023-09-12T11:08:44;28.40;66.60
22416;DHT22;12204;50.600;4.608;2023-09-12T11:14:04;28.40;66.30
22416;DHT22;12204;50.600;4.608;2023-09-12T11:19:16;28.40;65.90
22416;DHT22;12204;50.600;4.608;2023-09-12T11:24:21;28.50;66.20
22416;DHT22;12204;50.600;4.608;2023-09-12T11:29:34;28.50;66.40
22416;DHT22;12204;50.600;4.608;2023-09-12T11:34:41;28.50;66.50
22416;DHT22;12204;50.600;4.608;2023-09-12T11:39:46;28.50;67.10
22416;DHT22;12204;50.600;4.608;2023-09-12T11:44:53;28.50;67.20
22416;DHT22;12204;50.600;4.608;2023-09-12T11:49:57;28.50;66.70
22416;DHT22;12204;50.600;4.608;2023-09-12T11:55:01;28.50;66.50
22416;DHT22;12204;50.600;4.608;2023-09-12T12:00:09;28.50;66.30
22416;DHT22;12204;50.600;4.608;2023-09-12T12:05:15;28.50;66.00
22416;DHT22;12204;50.600;4.608;2023-09-12T12:10:19;28.50;66.10
22416;DHT22;12204;50.600;4.608;2023-09-12T12:15:27;28.50;66.30
22416;DHT22;12204;50.600;4.608;2023-09-12T12:20:30;28.50;66.50
22416;DHT22;12204;50.600;4.608;2023-09-12T12:25:34;28.50;67.00
22416;DHT22;12204;50.600;4.608;2023-09-12T12:30:39;28.50;67.00
22416;DHT22;12204;50.600;4.608;2023-09-12T12:35:44;28.60;66.70
22416;DHT22;12204;50.600;4.608;2023-09-12T12:40:57;28.60;66.20
22416;DHT22;12204;50.600;4.608;2023-09-12T12:46:02;28.60;66.40
22416;DHT22;12204;50.600;4.608;2023-09-12T12:51:18;28.60;66.10
22416;DHT22;12204;50.600;4.608;2023-09-12T12:56:27;28.60;66.10
22416;DHT22;12204;50.600;4.608;2023-09-12T13:01:35;28.60;66.30
22416;DHT22;12204;50.600;4.608;2023-09-12T13:06:40;28.60;66.50
22416;DHT22;12204;50.600;4.608;2023-09-12T13:11:45;28.60;67.00
22416;DHT22;12204;50.600;4.608;2023-09-12T13:16:50;28.60;67.00
22416;DHT22;12204;50.600;4.608;2023-09-12T13:21:53;28.60;66.50
22416;DHT22;12204;50.600;4.608;2023-09-12T13:26:57;28.70;66.30
22416;DHT22;12204;50.600;4.608;2023-09-12T13:32:03;28.60;66.20
22416;DHT22;12204;50.600;4.608;2023-09-12T13:37:08;28.70;66.20
22416;DHT22;12204;50.600;4.608;2023-09-12T13:42:14;28.70;66.40
22416;DHT22;12204;50.600;4.608;2023-09-12T13:47:24;28.70;66.50
22416;DHT22;12204;50.600;4.608;2023-09-12T13:52:27;28.70;66.40
22416;DHT22;12204;50.600;4.608;2023-09-12T13:57:31;28.70;66.20
22416;DHT22;12204;50.600;4.608;2023-09-12T14:02:47;28.70;66.20
22416;DHT22;12204;50.600;4.608;2023-09-12T14:07:52;28.70;66.00
22416;DHT22;12204;50.600;4.608;2023-09-12T14:12:56;28.70;66.30
22416;DHT22;12204;50.600;4.608;2023-09-12T14:18:20;28.60;66.60
22416;DHT22;12204;50.600;4.608;2023-09-12T14:23:25;28.60;66.70
22416;DHT22;12204;50.600;4.608;2023-09-12T14:28:30;28.60;66.50
22416;DHT22;12204;50.600;4.608;2023-09-12T14:33:38;28.70;66.50
22416;DHT22;12204;50.600;4.608;2023-09-12T14:38:42;28.70;66.00
22416;DHT22;12204;50.600;4.608;2023-09-12T14:43:48;28.60;65.80
22416;DHT22;12204;50.600;4.608;2023-09-12T14:48:53;28.60;65.80
22416;DHT22;12204;50.600;4.608;2023-09-12T14:54:03;28.60;66.10
22416;DHT22;12204;50.600;4.608;2023-09-12T14:59:08;28.60;66.30
22416;DHT22;12204;50.600;4.608;2023-09-12T15:04:13;28.60;65.90
22416;DHT22;12204;50.600;4.608;2023-09-12T15:09:16;28.60;66.30
22416;DHT22;12204;50.600;4.608;2023-09-12T15:14:20;28.60;65.80
22416;DHT22;12204;50.600;4.608;2023-09-12T15:19:26;28.60;65.90
22416;DHT22;12204;50.600;4.608;2023-09-12T15:24:30;28.60;66.20
22416;DHT22;12204;50.600;4.608;2023-09-12T15:29:34;28.60;66.60
22416;DHT22;12204;50.600;4.608;2023-09-12T15:34:39;28.60;66.90
22416;DHT22;12204;50.600;4.608;2023-09-12T15:39:42;28.60;66.70
22416;DHT22;12204;50.600;4.608;2023-09-12T15:44:46;28.60;66.40
22416;DHT22;12204;50.600;4.608;2023-09-12T15:50:05;28.60;66.00
22416;DHT22;12204;50.600;4.608;2023-09-12T15:55:10;28.60;66.10
22416;DHT22;12204;50.600;4.608;2023-09-12T16:00:14;28.50;66.30
22416;DHT22;12204;50.600;4.608;2023-09-12T16:05:19;28.50;66.70
22416;DHT22;12204;50.600;4.608;2023-09-12T16:10:23;28.50;66.70
22416;DHT22;12204;50.600;4.608;2023-09-12T16:15:26;28.50;66.50
22416;DHT22;12204;50.600;4.608;2023-09-12T16:20:31;28.50;66.10
22416;DHT22;12204;50.600;4.608;2023-09-12T16:25:35;28.50;66.20
22416;DHT22;12204;50.600;4.608;2023-09-12T16:30:38;28.50;66.30
22416;DHT22;12204;50.600;4.608;2023-09-12T16:35:43;28.50;66.50
22416;DHT22;12204;50.600;4.608;2023-09-12T16:40:47;28.50;66.80
22416;DHT22;12204;50.600;4.608;2023-09-12T16:45:51;28.40;67.20
22416;DHT22;12204;50.600;4.608;2023-09-12T16:50:56;28.40;67.10
22416;DHT22;12204;50.600;4.608;2023-09-12T16:55:59;28.40;66.70
22416;DHT22;12204;50.600;4.608;2023-09-12T17:01:03;28.40;66.30
22416;DHT22;12204;50.600;4.608;2023-09-12T17:06:07;28.40;66.10
22416;DHT22;12204;50.600;4.608;2023-09-12T17:11:11;28.40;66.20
22416;DHT22;12204;50.600;4.608;2023-09-12T17:16:14;28.40;66.40
22416;DHT22;12204;50.600;4.608;2023-09-12T17:21:20;28.40;66.60
22416;DHT22;12204;50.600;4.608;2023-09-12T17:26:24;28.40;67.00
22416;DHT22;12204;50.600;4.608;2023-09-12T17:31:27;28.40;67.40
22416;DHT22;12204;50.600;4.608;2023-09-12T17:36:32;28.40;67.20
22416;DHT22;12204;50.600;4.608;2023-09-12T17:41:36;28.40;66.70
22416;DHT22;12204;50.600;4.608;2023-09-12T17:46:40;28.40;66.50
22416;DHT22;12204;50.600;4.608;2023-09-12T17:51:45;28.40;66.20
22416;DHT22;12204;50.600;4.608;2023-09-12T17:56:49;28.40;66.30
22416;DHT22;12204;50.600;4.608;2023-09-12T18:01:52;28.40;66.50
22416;DHT22;12204;50.600;4.608;2023-09-12T18:06:58;28.40;66.60
22416;DHT22;12204;50.600;4.608;2023-09-12T18:12:03;28.30;66.70
22416;DHT22;12204;50.600;4.608;2023-09-12T18:17:07;28.40;67.00
22416;DHT22;12204;50.600;4.608;2023-09-12T18:22:14;28.40;66.70
22416;DHT22;12204;50.600;4.608;2023-09-12T18:27:17;28.40;66.40
22416;DHT22;12204;50.600;4.608;2023-09-12T18:32:21;28.30;66.20
22416;DHT22;12204;50.600;4.608;2023-09-12T18:37:26;28.30;66.20
22416;DHT22;12204;50.600;4.608;2023-09-12T18:42:31;28.30;66.40
22416;DHT22;12204;50.600;4.608;2023-09-12T18:47:35;28.30;66.50
22416;DHT22;12204;50.600;4.608;2023-09-12T18:52:40;28.30;66.90
22416;DHT22;12204;50.600;4.608;2023-09-12T18:57:56;28.40;66.80
22416;DHT22;12204;50.600;4.608;2023-09-12T19:03:00;28.30;66.30
22416;DHT22;12204;50.600;4.608;2023-09-12T19:08:05;28.30;66.10
22416;DHT22;12204;50.600;4.608;2023-09-12T19:13:11;28.30;66.30
22416;DHT22;12204;50.600;4.608;2023-09-12T19:18:15;28.30;66.40
22416;DHT22;12204;50.600;4.608;2023-09-12T19:23:19;28.30;66.70
22416;DHT22;12204;50.600;4.608;2023-09-12T19:28:24;28.30;67.20
22416;DHT22;12204;50.600;4.608;2023-09-12T19:33:27;28.30;68.00
22416;DHT22;12204;50.600;4.608;2023-09-12T19:38:32;28.30;66.90
22416;DHT22;12204;50.600;4.608;2023-09-12T19:43:35;28.30;66.50
22416;DHT22;12204;50.600;4.608;2023-09-12T19:48:39;28.30;66.30
22416;DHT22;12204;50.600;4.608;2023-09-12T19:53:44;28.30;66.30
22416;DHT22;12204;50.600;4.608;2023-09-12T19:58:47;28.30;66.50
22416;DHT22;12204;50.600;4.608;2023-09-12T20:03:51;28.30;66.60
22416;DHT22;12204;50.600;4.608;2023-09-12T20:08:56;28.30;67.10
22416;DHT22;12204;50.600;4.608;2023-09-12T20:13:59;28.30;67.40
22416;DHT22;12204;50.600;4.608;2023-09-12T20:19:03;28.20;67.10
22416;DHT22;12204;50.600;4.608;2023-09-12T20:24:09;28.30;66.70
22416;DHT22;12204;50.600;4.608;2023-09-12T20:29:12;28.30;66.50
22416;DHT22;12204;50.600;4.608;2023-09-12T20:34:16;28.30;66.30
22416;DHT22;12204;50.600;4.608;2023-09-12T20:39:23;28.30;66.40
22416;DHT22;12204;50.600;4.608;2023-09-12T20:44:28;28.20;66.50
22416;DHT22;12204;50.600;4.608;2023-09-12T20:49:37;28.20;66.70
22416;DHT22;12204;50.600;4.608;2023-09-12T20:54:47;28.20;67.20
22416;DHT22;12204;50.600;4.608;2023-09-12T20:59:50;28.20;67.50
22416;DHT22;12204;50.600;4.608;2023-09-12T21:04:54;28.20;67.10
22416;DHT22;12204;50.600;4.608;2023-09-12T21:09:59;28.20;66.80
22416;DHT22;12204;50.600;4.608;2023-09-12T21:15:03;28.20;66.40
22416;DHT22;12204;50.600;4.608;2023-09-12T21:20:08;28.20;66.30
22416;DHT22;12204;50.600;4.608;2023-09-12T21:25:13;28.20;66.50
22416;DHT22;12204;50.600;4.608;2023-09-12T21:30:17;28.20;66.60
22416;DHT22;12204;50.600;4.608;2023-09-12T21:35:20;28.20;67.00
22416;DHT22;12204;50.600;4.608;2023-09-12T21:40:27;28.20;67.60
22416;DHT22;12204;50.600;4.608;2023-09-12T21:45:30;28.20;67.50
22416;DHT22;12204;50.600;4.608;2023-09-12T21:50:34;28.20;67.00
22416;DHT22;12204;50.600;4.608;2023-09-12T21:55:39;28.20;66.60
22416;DHT22;12204;50.600;4.608;2023-09-12T22:00:43;28.20;66.40
22416;DHT22;12204;50.600;4.608;2023-09-12T22:05:46;28.20;66.40
22416;DHT22;12204;50.600;4.608;2023-09-12T22:10:51;28.20;66.60
22416;DHT22;12204;50.600;4.608;2023-09-12T22:15:54;28.20;66.80
22416;DHT22;12204;50.600;4.608;2023-09-12T22:20:58;28.20;67.10
22416;DHT22;12204;50.600;4.608;2023-09-12T22:26:09;28.20;67.70
22416;DHT22;12204;50.600;4.608;2023-09-12T22:31:13;28.20;67.40
22416;DHT22;12204;50.600;4.608;2023-09-12T22:36:17;28.20;67.10
22416;DHT22;12204;50.600;4.608;2023-09-12T22:41:22;28.20;66.70
22416;DHT22;12204;50.600;4.608;2023-09-12T22:46:28;28.20;66.50
22416;DHT22;12204;50.600;4.608;2023-09-12T22:51:32;28.20;66.60
22416;DHT22;12204;50.600;4.608;2023-09-12T22:56:37;28.10;66.60
22416;DHT22;12204;50.600;4.608;2023-09-12T23:01:40;28.10;66.80
22416;DHT22;12204;50.600;4.608;2023-09-12T23:06:44;28.10;66.80
22416;DHT22;12204;50.600;4.608;2023-09-12T23:11:48;28.10;66.70
22416;DHT22;12204;50.600;4.608;2023-09-12T23:16:52;28.10;66.40
22416;DHT22;12204;50.600;4.608;2023-09-12T23:21:55;28.20;66.40
22416;DHT22;12204;50.600;4.608;2023-09-12T23:27:04;28.10;66.60
22416;DHT22;12204;50.600;4.608;2023-09-12T23:32:09;28.10;66.70
22416;DHT22;12204;50.600;4.608;2023-09-12T23:37:12;28.10;67.00
22416;DHT22;12204;50.600;4.608;2023-09-12T23:42:17;28.10;67.50
22416;DHT22;12204;50.600;4.608;2023-09-12T23:47:22;28.10;67.40
22416;DHT22;12204;50.600;4.608;2023-09-12T23:52:26;28.10;67.00
22416;DHT22;12204;50.600;4.608;2023-09-12T23:57:31;28.10;66.60
